De Xin Hai — BQBP — position and weather

sailwx.info

Track history (hours):
 
Tides and Currents Weather Stations Pressure Air Temp Water Temp Dewpoint Dewpoint Depression Visibility Wind Speed Wind Dir Waves Ship Positions

De Xin Hai

Last reported at 2016-Sep-25 16:25 UTC. Time now 2016-Sep-28 08:37 UTC.
Position N 38°27' E 121°08'.

Length 225 m; draft 6.9 m.

Type: Cargo ship. MMSI: 367344200.

Date/timePositionNaut miles runAvg speedWind from/ knotsBaromVisibWave heightAir tempDewpointWater temp
2016-Sep-25 16:25N 38°27' E 121°08'1012.2
2016-Sep-25 15:33N 38°32' E 120°56'3911.5
2016-Sep-25 12:13N 38°38' E 120°07'113 9.7
2016-Sep-25 00:32N 38°57' E 117°44'0 0.0
2016-Sep-24 22:32N 38°57' E 117°44'0 0.0
2016-Sep-24 21:20N 38°57' E 117°44'0 0.0
2016-Sep-24 19:32N 38°57' E 117°44'0 0.0
2016-Sep-24 18:32N 38°57' E 117°44'0 0.0
2016-Sep-24 17:32N 38°57' E 117°44'0 0.0
2016-Sep-24 16:26N 38°57' E 117°44'0 0.0
2016-Sep-24 14:32N 38°57' E 117°44'0 0.0
2016-Sep-24 12:32N 38°57' E 117°44'0 0.0
2016-Sep-24 10:32N 38°57' E 117°44'0 0.0
2016-Sep-24 09:32N 38°57' E 117°44'0 0.0
2016-Sep-24 03:26N 38°57' E 117°44'0 0.0
2016-Sep-24 02:32N 38°57' E 117°44'0 0.0
2016-Sep-24 01:32N 38°57' E 117°44'0 0.0
2016-Sep-24 00:26N 38°57' E 117°44'0 0.0
2016-Sep-23 19:32N 38°57' E 117°44'0 0.0
2016-Sep-23 17:32N 38°57' E 117°44'0 0.0
2016-Sep-23 16:32N 38°57' E 117°44'0 0.0
2016-Sep-23 15:32N 38°57' E 117°44'0 0.0
2016-Sep-23 13:32N 38°57' E 117°44'0 0.0
2016-Sep-23 09:26N 38°57' E 117°44'268 5.2
2016-Sep-21 05:33N 36°55' E 122°47'16 8.2
2016-Sep-21 03:34N 36°53' E 122°26'0 0.1
2016-Sep-21 02:29N 36°53' E 122°26'0 0.0
2016-Sep-20 17:29N 36°53' E 122°26'0 0.0
2016-Sep-20 14:29N 36°53' E 122°26'0 0.0
2016-Sep-20 13:29N 36°53' E 122°26'0 0.0
2016-Sep-20 10:29N 36°53' E 122°26'0 0.0
2016-Sep-20 08:23N 36°53' E 122°26'0 0.0
2016-Sep-20 07:17N 36°53' E 122°26'0 0.0
2016-Sep-20 06:23N 36°53' E 122°26'0 0.0
2016-Sep-19 14:29N 36°53' E 122°26'0 0.0
2016-Sep-19 13:29N 36°53' E 122°26'0 0.0
2016-Sep-19 12:11N 36°53' E 122°26'0 0.0
2016-Sep-19 11:29N 36°53' E 122°26'0 0.0
2016-Sep-19 09:29N 36°53' E 122°26'0 0.0
2016-Sep-19 07:29N 36°53' E 122°26'0 0.0
2016-Sep-19 06:29N 36°53' E 122°26'0 0.0
2016-Sep-19 03:17N 36°53' E 122°26'0 0.0
2016-Sep-19 02:29N 36°53' E 122°26'0 0.0
2016-Sep-19 00:29N 36°53' E 122°26'0 0.0
2016-Sep-18 19:29N 36°53' E 122°26'0 0.0
2016-Sep-18 15:29N 36°53' E 122°26'0 0.0
2016-Sep-18 02:29N 36°53' E 122°26'0 0.0
2016-Sep-18 01:29N 36°53' E 122°26'0 0.0
2016-Sep-18 00:29N 36°53' E 122°26'0 0.0
2016-Sep-17 22:29N 36°53' E 122°26'0 0.0
2016-Sep-17 21:29N 36°53' E 122°26'0 0.0
2016-Sep-17 20:23N 36°53' E 122°26'0 0.0
2016-Sep-17 19:11N 36°53' E 122°26'0 0.0
2016-Sep-17 13:29N 36°53' E 122°26'0 0.0
2016-Sep-17 12:29N 36°53' E 122°26'0 0.0
2016-Sep-17 10:29N 36°53' E 122°26'0 0.0
2016-Sep-17 09:29N 36°53' E 122°26'0 0.0
2016-Sep-17 08:29N 36°53' E 122°26'0 0.0
2016-Sep-17 07:29N 36°53' E 122°26'0 0.0
2016-Sep-17 05:29N 36°53' E 122°26'0 0.0
2016-Sep-17 04:29N 36°53' E 122°26'0 0.0
2016-Sep-17 00:29N 36°53' E 122°26'0 0.0
2016-Sep-16 17:29N 36°53' E 122°26'0 0.0
2016-Sep-16 15:29N 36°53' E 122°26'0 0.0
2016-Sep-16 12:29N 36°53' E 122°26'0 0.0
2016-Sep-16 09:23N 36°53' E 122°26'0 0.0
2016-Sep-16 07:29N 36°53' E 122°26'0 0.0
2016-Sep-16 03:29N 36°53' E 122°26'0 0.0
2016-Sep-16 02:29N 36°53' E 122°26'0 0.0
2016-Sep-16 00:29N 36°53' E 122°26'0 0.0
2016-Sep-15 22:23N 36°53' E 122°26'0 0.1
2016-Sep-15 21:29N 36°53' E 122°26'0 0.0
2016-Sep-15 20:29N 36°53' E 122°26'0 0.0
2016-Sep-15 18:29N 36°53' E 122°26'  
Track history (hours):
 
Tides and Currents Weather Stations Pressure Air Temp Water Temp Dewpoint Dewpoint Depression Visibility Wind Speed Wind Dir Waves Ship Positions

De Xin Hai

Last reported at 2016-Sep-25 16:25 UTC. Time now 2016-Sep-28 08:37 UTC.
Position N 38°27' E 121°08'.

Length 225 m; draft 6.9 m.

Type: Cargo ship. MMSI: 367344200.

Date/timePositionNaut miles runAvg speedWind from/ knotsBaromVisibWave heightAir tempDewpointWater temp
2016-Sep-25 16:25N 38°27' E 121°08'1012.2
2016-Sep-25 15:33N 38°32' E 120°56'3911.5
2016-Sep-25 12:13N 38°38' E 120°07'113 9.7
2016-Sep-25 00:32N 38°57' E 117°44'0 0.0
2016-Sep-24 22:32N 38°57' E 117°44'0 0.0
2016-Sep-24 21:20N 38°57' E 117°44'0 0.0
2016-Sep-24 19:32N 38°57' E 117°44'0 0.0
2016-Sep-24 18:32N 38°57' E 117°44'0 0.0
2016-Sep-24 17:32N 38°57' E 117°44'0 0.0
2016-Sep-24 16:26N 38°57' E 117°44'0 0.0
2016-Sep-24 14:32N 38°57' E 117°44'0 0.0
2016-Sep-24 12:32N 38°57' E 117°44'0 0.0
2016-Sep-24 10:32N 38°57' E 117°44'0 0.0
2016-Sep-24 09:32N 38°57' E 117°44'0 0.0
2016-Sep-24 03:26N 38°57' E 117°44'0 0.0
2016-Sep-24 02:32N 38°57' E 117°44'0 0.0
2016-Sep-24 01:32N 38°57' E 117°44'0 0.0
2016-Sep-24 00:26N 38°57' E 117°44'0 0.0
2016-Sep-23 19:32N 38°57' E 117°44'0 0.0
2016-Sep-23 17:32N 38°57' E 117°44'0 0.0
2016-Sep-23 16:32N 38°57' E 117°44'0 0.0
2016-Sep-23 15:32N 38°57' E 117°44'0 0.0
2016-Sep-23 13:32N 38°57' E 117°44'0 0.0
2016-Sep-23 09:26N 38°57' E 117°44'268 5.2
2016-Sep-21 05:33N 36°55' E 122°47'16 8.2
2016-Sep-21 03:34N 36°53' E 122°26'0 0.1
2016-Sep-21 02:29N 36°53' E 122°26'0 0.0
2016-Sep-20 17:29N 36°53' E 122°26'0 0.0
2016-Sep-20 14:29N 36°53' E 122°26'0 0.0
2016-Sep-20 13:29N 36°53' E 122°26'0 0.0
2016-Sep-20 10:29N 36°53' E 122°26'0 0.0
2016-Sep-20 08:23N 36°53' E 122°26'0 0.0
2016-Sep-20 07:17N 36°53' E 122°26'0 0.0
2016-Sep-20 06:23N 36°53' E 122°26'0 0.0
2016-Sep-19 14:29N 36°53' E 122°26'0 0.0
2016-Sep-19 13:29N 36°53' E 122°26'0 0.0
2016-Sep-19 12:11N 36°53' E 122°26'0 0.0
2016-Sep-19 11:29N 36°53' E 122°26'0 0.0
2016-Sep-19 09:29N 36°53' E 122°26'0 0.0
2016-Sep-19 07:29N 36°53' E 122°26'0 0.0
2016-Sep-19 06:29N 36°53' E 122°26'0 0.0
2016-Sep-19 03:17N 36°53' E 122°26'0 0.0
2016-Sep-19 02:29N 36°53' E 122°26'0 0.0
2016-Sep-19 00:29N 36°53' E 122°26'0 0.0
2016-Sep-18 19:29N 36°53' E 122°26'0 0.0
2016-Sep-18 15:29N 36°53' E 122°26'0 0.0
2016-Sep-18 02:29N 36°53' E 122°26'0 0.0
2016-Sep-18 01:29N 36°53' E 122°26'0 0.0
2016-Sep-18 00:29N 36°53' E 122°26'0 0.0
2016-Sep-17 22:29N 36°53' E 122°26'0 0.0
2016-Sep-17 21:29N 36°53' E 122°26'0 0.0
2016-Sep-17 20:23N 36°53' E 122°26'0 0.0
2016-Sep-17 19:11N 36°53' E 122°26'0 0.0
2016-Sep-17 13:29N 36°53' E 122°26'0 0.0
2016-Sep-17 12:29N 36°53' E 122°26'0 0.0
2016-Sep-17 10:29N 36°53' E 122°26'0 0.0
2016-Sep-17 09:29N 36°53' E 122°26'0 0.0
2016-Sep-17 08:29N 36°53' E 122°26'0 0.0
2016-Sep-17 07:29N 36°53' E 122°26'0 0.0
2016-Sep-17 05:29N 36°53' E 122°26'0 0.0
2016-Sep-17 04:29N 36°53' E 122°26'0 0.0
2016-Sep-17 00:29N 36°53' E 122°26'0 0.0
2016-Sep-16 17:29N 36°53' E 122°26'0 0.0
2016-Sep-16 15:29N 36°53' E 122°26'0 0.0
2016-Sep-16 12:29N 36°53' E 122°26'0 0.0
2016-Sep-16 09:23N 36°53' E 122°26'0 0.0
2016-Sep-16 07:29N 36°53' E 122°26'0 0.0
2016-Sep-16 03:29N 36°53' E 122°26'0 0.0
2016-Sep-16 02:29N 36°53' E 122°26'0 0.0
2016-Sep-16 00:29N 36°53' E 122°26'0 0.0
2016-Sep-15 22:23N 36°53' E 122°26'0 0.1
2016-Sep-15 21:29N 36°53' E 122°26'0 0.0
2016-Sep-15 20:29N 36°53' E 122°26'0 0.0
2016-Sep-15 18:29N 36°53' E 122°26'  

Dump ship's entire track history